Карточка аэропорта UAAH

Внимание!
Информация на этой странице в стадии наполнения.
Если вы не увидели какой-то информации, или заметили неточность - пожалуйста сообщите нам!
Спасибо!
Команда RU-STAFF
Название аэропортаБалхаш
Название аэропорта (англ.)Balkhash
Превышение1446 ft. (440.7 m.)
Координаты46°53.424', 74°59.928'
Высота перехода10000ft
Эшелон переходаFL120, QNH<733:FL130
Коды ответчика3501-3517, 3401-3427
Зона ОрВДАлматы РПИ (UAAA)
Данные METARUAAH 251300Z 20006MPS CAVOK 33/07 Q1007 NOSIG RMK QFE717/0956
Проноз погоды (TAF)UAAH 251100Z 2512/2521 21008MPS CAVOK
NOTAMshow/hide NOTAM
AWOS   TABLE

Информация о ВПП


Диспетчерские позиции




Спутниковое изображение